sensor_id;sensor_type;location;lat;lon;timestamp;pressure;altitude;pressure_sealevel;temperature;humidity
43621;BME280;29213;50.770;7.298;2023-07-08T00:00:46;100948.56;;;17.46;48.89
43621;BME280;29213;50.770;7.298;2023-07-08T00:03:16;100906.22;;;17.20;48.42
43621;BME280;29213;50.770;7.298;2023-07-08T00:05:41;100921.75;;;17.25;48.50
43621;BME280;29213;50.770;7.298;2023-07-08T00:08:14;100915.75;;;17.22;49.17
43621;BME280;29213;50.770;7.298;2023-07-08T00:10:39;100887.50;;;17.05;48.80
43621;BME280;29213;50.770;7.298;2023-07-08T00:13:05;100935.88;;;17.33;49.00
43621;BME280;29213;50.770;7.298;2023-07-08T00:15:32;100889.75;;;17.01;48.61
43621;BME280;29213;50.770;7.298;2023-07-08T00:18:02;100932.53;;;17.25;49.60
43621;BME280;29213;50.770;7.298;2023-07-08T00:20:44;100901.75;;;16.99;49.22
43621;BME280;29213;50.770;7.298;2023-07-08T00:23:10;100929.41;;;17.21;49.18
43621;BME280;29213;50.770;7.298;2023-07-08T00:25:36;100904.44;;;16.99;49.23
43621;BME280;29213;50.770;7.298;2023-07-08T00:28:02;100925.63;;;17.08;48.79
43621;BME280;29213;50.770;7.298;2023-07-08T00:30:29;100932.47;;;17.11;48.92
43621;BME280;29213;50.770;7.298;2023-07-08T00:32:56;100936.16;;;17.10;49.09
43621;BME280;29213;50.770;7.298;2023-07-08T00:35:36;100934.94;;;17.06;49.11
43621;BME280;29213;50.770;7.298;2023-07-08T00:40:38;100909.16;;;16.90;50.16
43621;BME280;29213;50.770;7.298;2023-07-08T00:43:14;100939.03;;;17.02;49.94
43621;BME280;29213;50.770;7.298;2023-07-08T00:45:51;100940.44;;;16.98;50.21
43621;BME280;29213;50.770;7.298;2023-07-08T00:48:24;100928.22;;;16.95;50.11
43621;BME280;29213;50.770;7.298;2023-07-08T00:50:52;100900.75;;;16.71;50.37
43621;BME280;29213;50.770;7.298;2023-07-08T00:53:35;100927.28;;;16.81;50.54
43621;BME280;29213;50.770;7.298;2023-07-08T00:58:34;100928.94;;;16.82;50.28
43621;BME280;29213;50.770;7.298;2023-07-08T01:01:01;100917.50;;;16.73;50.40
43621;BME280;29213;50.770;7.298;2023-07-08T01:03:29;100897.78;;;16.59;50.63
43621;BME280;29213;50.770;7.298;2023-07-08T01:05:56;100917.50;;;16.73;50.04
43621;BME280;29213;50.770;7.298;2023-07-08T01:08:26;100891.53;;;16.52;50.79
43621;BME280;29213;50.770;7.298;2023-07-08T01:10:59;100911.66;;;16.63;51.22
43621;BME280;29213;50.770;7.298;2023-07-08T01:13:28;100913.97;;;16.66;50.51
43621;BME280;29213;50.770;7.298;2023-07-08T01:15:56;100908.97;;;16.63;50.89
43621;BME280;29213;50.770;7.298;2023-07-08T01:18:21;100913.91;;;16.59;49.53
43621;BME280;29213;50.770;7.298;2023-07-08T01:20:47;100869.44;;;16.28;49.43
43621;BME280;29213;50.770;7.298;2023-07-08T01:23:13;100888.28;;;16.35;49.48
43621;BME280;29213;50.770;7.298;2023-07-08T01:25:41;100879.94;;;16.23;49.58
43621;BME280;29213;50.770;7.298;2023-07-08T01:28:07;100857.47;;;16.02;48.59
43621;BME280;29213;50.770;7.298;2023-07-08T01:30:33;100869.28;;;16.08;48.79
43621;BME280;29213;50.770;7.298;2023-07-08T01:33:14;100888.00;;;16.23;48.82
43621;BME280;29213;50.770;7.298;2023-07-08T01:35:40;100827.31;;;15.85;48.73
43621;BME280;29213;50.770;7.298;2023-07-08T01:38:09;100905.25;;;16.35;48.63
43621;BME280;29213;50.770;7.298;2023-07-08T01:40:36;100863.91;;;16.08;48.21
43621;BME280;29213;50.770;7.298;2023-07-08T01:43:04;100885.88;;;16.18;48.05
43621;BME280;29213;50.770;7.298;2023-07-08T01:45:38;100870.94;;;16.09;48.29
43621;BME280;29213;50.770;7.298;2023-07-08T01:48:08;100825.63;;;15.77;48.02
43621;BME280;29213;50.770;7.298;2023-07-08T01:50:37;100880.03;;;16.08;48.40
43621;BME280;29213;50.770;7.298;2023-07-08T01:53:14;100898.94;;;16.21;48.33
43621;BME280;29213;50.770;7.298;2023-07-08T01:55:40;100872.16;;;16.06;48.30
43621;BME280;29213;50.770;7.298;2023-07-08T01:58:05;100899.19;;;16.26;48.27
43621;BME280;29213;50.770;7.298;2023-07-08T02:00:31;100886.53;;;16.20;48.22
43621;BME280;29213;50.770;7.298;2023-07-08T02:02:56;100869.16;;;16.16;48.28
43621;BME280;29213;50.770;7.298;2023-07-08T02:05:23;100883.69;;;16.28;48.18
43621;BME280;29213;50.770;7.298;2023-07-08T02:07:48;100844.03;;;16.02;48.08
43621;BME280;29213;50.770;7.298;2023-07-08T02:10:13;100878.91;;;16.24;48.42
43621;BME280;29213;50.770;7.298;2023-07-08T02:12:39;100799.31;;;15.72;48.54
43621;BME280;29213;50.770;7.298;2023-07-08T02:15:06;100844.41;;;15.99;48.24
43621;BME280;29213;50.770;7.298;2023-07-08T02:17:31;100876.34;;;16.15;48.43
43621;BME280;29213;50.770;7.298;2023-07-08T02:19:57;100872.00;;;16.14;48.33
43621;BME280;29213;50.770;7.298;2023-07-08T02:22:22;100838.53;;;15.88;48.41
43621;BME280;29213;50.770;7.298;2023-07-08T02:24:48;100826.25;;;15.79;48.68
43621;BME280;29213;50.770;7.298;2023-07-08T02:27:14;100793.41;;;15.55;48.65
43621;BME280;29213;50.770;7.298;2023-07-08T02:29:39;100879.78;;;16.02;48.70
43621;BME280;29213;50.770;7.298;2023-07-08T02:32:06;100823.03;;;15.69;48.56
43621;BME280;29213;50.770;7.298;2023-07-08T02:34:31;100865.41;;;15.95;49.04
43621;BME280;29213;50.770;7.298;2023-07-08T02:36:57;100855.00;;;15.85;48.87
43621;BME280;29213;50.770;7.298;2023-07-08T02:39:23;100855.84;;;15.86;48.91
43621;BME280;29213;50.770;7.298;2023-07-08T02:41:48;100822.41;;;15.67;48.86
43621;BME280;29213;50.770;7.298;2023-07-08T02:44:14;100854.38;;;15.83;48.81
43621;BME280;29213;50.770;7.298;2023-07-08T02:46:40;100837.56;;;15.74;48.77
43621;BME280;29213;50.770;7.298;2023-07-08T02:49:06;100805.34;;;15.53;48.73
43621;BME280;29213;50.770;7.298;2023-07-08T02:51:32;100859.75;;;15.83;49.09
43621;BME280;29213;50.770;7.298;2023-07-08T02:53:58;100862.94;;;15.72;49.31
43621;BME280;29213;50.770;7.298;2023-07-08T02:56:23;100867.66;;;15.70;49.58
43621;BME280;29213;50.770;7.298;2023-07-08T02:58:49;100865.56;;;15.65;49.45
43621;BME280;29213;50.770;7.298;2023-07-08T03:01:15;100868.81;;;15.60;49.79
43621;BME280;29213;50.770;7.298;2023-07-08T03:03:44;100858.38;;;15.50;49.49
43621;BME280;29213;50.770;7.298;2023-07-08T03:06:10;100862.50;;;15.46;49.59
43621;BME280;29213;50.770;7.298;2023-07-08T03:08:36;100873.94;;;15.55;49.94
43621;BME280;29213;50.770;7.298;2023-07-08T03:11:03;100878.84;;;15.52;50.24
43621;BME280;29213;50.770;7.298;2023-07-08T03:13:29;100791.81;;;14.87;49.92
43621;BME280;29213;50.770;7.298;2023-07-08T03:15:56;100844.34;;;15.12;50.22
43621;BME280;29213;50.770;7.298;2023-07-08T03:18:22;100857.56;;;15.13;50.19
43621;BME280;29213;50.770;7.298;2023-07-08T03:20:49;100843.13;;;14.99;50.33
43621;BME280;29213;50.770;7.298;2023-07-08T03:23:15;100801.19;;;14.76;51.43
43621;BME280;29213;50.770;7.298;2023-07-08T03:25:40;100827.78;;;14.93;50.78
43621;BME280;29213;50.770;7.298;2023-07-08T03:28:06;100898.69;;;15.35;50.30
43621;BME280;29213;50.770;7.298;2023-07-08T03:30:33;100848.78;;;15.04;50.51
43621;BME280;29213;50.770;7.298;2023-07-08T03:33:00;100900.28;;;15.30;50.27
43621;BME280;29213;50.770;7.298;2023-07-08T03:35:26;100897.59;;;15.30;50.15
43621;BME280;29213;50.770;7.298;2023-07-08T03:37:52;100872.38;;;15.09;50.25
43621;BME280;29213;50.770;7.298;2023-07-08T03:40:18;100903.59;;;15.32;50.52
43621;BME280;29213;50.770;7.298;2023-07-08T03:42:44;100901.38;;;15.35;51.60
43621;BME280;29213;50.770;7.298;2023-07-08T03:45:09;100879.94;;;15.20;51.52
43621;BME280;29213;50.770;7.298;2023-07-08T03:47:35;100867.00;;;15.09;51.53
43621;BME280;29213;50.770;7.298;2023-07-08T03:50:00;100894.47;;;15.26;50.61
43621;BME280;29213;50.770;7.298;2023-07-08T03:52:26;100907.94;;;15.33;51.29
43621;BME280;29213;50.770;7.298;2023-07-08T03:54:51;100890.31;;;15.23;51.35
43621;BME280;29213;50.770;7.298;2023-07-08T03:57:17;100909.06;;;15.39;51.56
43621;BME280;29213;50.770;7.298;2023-07-08T03:59:42;100918.75;;;15.40;51.64
43621;BME280;29213;50.770;7.298;2023-07-08T04:02:11;100889.72;;;15.28;52.12
43621;BME280;29213;50.770;7.298;2023-07-08T04:04:36;100912.00;;;15.44;51.81
43621;BME280;29213;50.770;7.298;2023-07-08T04:07:03;100890.31;;;15.23;52.24
43621;BME280;29213;50.770;7.298;2023-07-08T04:09:29;100910.44;;;15.34;52.19
43621;BME280;29213;50.770;7.298;2023-07-08T04:11:54;100871.25;;;15.03;51.37
43621;BME280;29213;50.770;7.298;2023-07-08T04:14:20;100863.28;;;14.95;51.24
43621;BME280;29213;50.770;7.298;2023-07-08T04:16:50;100905.72;;;15.21;51.71
43621;BME280;29213;50.770;7.298;2023-07-08T04:19:16;100910.34;;;15.28;51.99
43621;BME280;29213;50.770;7.298;2023-07-08T04:21:43;100920.81;;;15.22;51.29
43621;BME280;29213;50.770;7.298;2023-07-08T04:24:10;100889.06;;;14.96;51.31
43621;BME280;29213;50.770;7.298;2023-07-08T04:26:37;100919.63;;;15.10;51.56
43621;BME280;29213;50.770;7.298;2023-07-08T04:29:07;100872.53;;;14.77;51.63
43621;BME280;29213;50.770;7.298;2023-07-08T04:31:32;100872.53;;;14.77;51.97
43621;BME280;29213;50.770;7.298;2023-07-08T04:33:57;100864.03;;;14.74;51.54
43621;BME280;29213;50.770;7.298;2023-07-08T04:36:23;100905.16;;;14.96;51.34
43621;BME280;29213;50.770;7.298;2023-07-08T04:38:50;100910.53;;;14.96;51.56
43621;BME280;29213;50.770;7.298;2023-07-08T04:41:15;100881.97;;;14.73;51.77
43621;BME280;29213;50.770;7.298;2023-07-08T04:43:40;100883.63;;;14.74;51.59
43621;BME280;29213;50.770;7.298;2023-07-08T04:46:18;100752.44;;;13.97;51.56
43621;BME280;29213;50.770;7.298;2023-07-08T04:48:44;100875.75;;;14.73;51.42
43621;BME280;29213;50.770;7.298;2023-07-08T04:51:11;100879.56;;;14.78;51.44
43621;BME280;29213;50.770;7.298;2023-07-08T04:53:36;100851.47;;;14.59;51.50
43621;BME280;29213;50.770;7.298;2023-07-08T04:56:01;100826.03;;;14.40;51.35
43621;BME280;29213;50.770;7.298;2023-07-08T04:58:27;100928.25;;;15.05;51.24
43621;BME280;29213;50.770;7.298;2023-07-08T05:00:52;100877.16;;;14.83;51.14
43621;BME280;29213;50.770;7.298;2023-07-08T05:03:17;100913.63;;;15.08;51.15
43621;BME280;29213;50.770;7.298;2023-07-08T05:05:43;100836.84;;;14.62;51.08
43621;BME280;29213;50.770;7.298;2023-07-08T05:08:09;100924.91;;;15.18;51.22
43621;BME280;29213;50.770;7.298;2023-07-08T05:10:34;100909.53;;;15.12;51.21
43621;BME280;29213;50.770;7.298;2023-07-08T05:13:00;100858.00;;;14.87;51.04
43621;BME280;29213;50.770;7.298;2023-07-08T05:15:26;100873.44;;;15.00;51.05
43621;BME280;29213;50.770;7.298;2023-07-08T05:17:51;100916.56;;;15.28;50.53
43621;BME280;29213;50.770;7.298;2023-07-08T05:20:17;100915.63;;;15.36;50.89
43621;BME280;29213;50.770;7.298;2023-07-08T05:22:44;100863.13;;;15.12;50.83
43621;BME280;29213;50.770;7.298;2023-07-08T05:25:11;100916.63;;;15.50;50.65
43621;BME280;29213;50.770;7.298;2023-07-08T05:27:36;100907.53;;;15.51;50.72
43621;BME280;29213;50.770;7.298;2023-07-08T05:30:03;100917.47;;;15.72;50.41
43621;BME280;29213;50.770;7.298;2023-07-08T05:32:29;100847.06;;;15.33;50.46
43621;BME280;29213;50.770;7.298;2023-07-08T05:34:54;100926.75;;;15.92;50.48
43621;BME280;29213;50.770;7.298;2023-07-08T05:37:20;100875.78;;;15.76;51.33
43621;BME280;29213;50.770;7.298;2023-07-08T05:39:50;100878.81;;;15.88;50.81
43621;BME280;29213;50.770;7.298;2023-07-08T05:42:16;100900.69;;;16.07;51.38
43621;BME280;29213;50.770;7.298;2023-07-08T05:44:41;100791.34;;;15.57;50.84
43621;BME280;29213;50.770;7.298;2023-07-08T05:47:07;100925.00;;;16.49;49.82
43621;BME280;29213;50.770;7.298;2023-07-08T05:49:32;100883.13;;;16.33;49.66
43621;BME280;29213;50.770;7.298;2023-07-08T05:51:57;100858.28;;;16.31;49.27
43621;BME280;29213;50.770;7.298;2023-07-08T05:54:23;100801.91;;;16.09;48.54
43621;BME280;29213;50.770;7.298;2023-07-08T05:56:48;100840.38;;;16.38;48.62
43621;BME280;29213;50.770;7.298;2023-07-08T05:59:14;100855.59;;;16.60;47.71
43621;BME280;29213;50.770;7.298;2023-07-08T06:01:39;100870.56;;;16.76;46.70
43621;BME280;29213;50.770;7.298;2023-07-08T06:04:04;100825.59;;;16.56;47.19
43621;BME280;29213;50.770;7.298;2023-07-08T06:06:30;100863.25;;;16.91;46.39
43621;BME280;29213;50.770;7.298;2023-07-08T06:08:55;100879.69;;;17.17;46.42
43621;BME280;29213;50.770;7.298;2023-07-08T06:11:21;100910.25;;;17.51;45.68
43621;BME280;29213;50.770;7.298;2023-07-08T06:13:47;100833.09;;;17.16;44.81
43621;BME280;29213;50.770;7.298;2023-07-08T06:16:13;100785.25;;;16.98;44.38
43621;BME280;29213;50.770;7.298;2023-07-08T06:18:38;100855.97;;;17.47;43.59
43621;BME280;29213;50.770;7.298;2023-07-08T06:21:05;100778.25;;;17.11;43.25
43621;BME280;29213;50.770;7.298;2023-07-08T06:23:30;100842.13;;;17.64;43.21
43621;BME280;29213;50.770;7.298;2023-07-08T06:25:56;100904.38;;;18.10;43.10
43621;BME280;29213;50.770;7.298;2023-07-08T06:28:22;100900.00;;;18.22;43.06
43621;BME280;29213;50.770;7.298;2023-07-08T06:30:47;100909.34;;;18.33;42.73
43621;BME280;29213;50.770;7.298;2023-07-08T06:33:13;100894.63;;;18.36;42.17
43621;BME280;29213;50.770;7.298;2023-07-08T06:35:39;100854.63;;;18.19;41.70
43621;BME280;29213;50.770;7.298;2023-07-08T06:38:06;100874.69;;;18.50;41.54
43621;BME280;29213;50.770;7.298;2023-07-08T06:40:32;100900.78;;;18.83;41.23
43621;BME280;29213;50.770;7.298;2023-07-08T06:42:57;100895.59;;;18.89;41.26
43621;BME280;29213;50.770;7.298;2023-07-08T06:45:23;100905.69;;;19.14;40.79
43621;BME280;29213;50.770;7.298;2023-07-08T06:47:48;100825.91;;;18.72;40.24
43621;BME280;29213;50.770;7.298;2023-07-08T06:50:14;100901.47;;;19.31;40.81
43621;BME280;29213;50.770;7.298;2023-07-08T06:52:39;100878.00;;;19.32;40.54
43621;BME280;29213;50.770;7.298;2023-07-08T06:55:07;100897.16;;;19.62;40.40
43621;BME280;29213;50.770;7.298;2023-07-08T06:57:33;100781.94;;;19.11;40.44
43621;BME280;29213;50.770;7.298;2023-07-08T06:59:59;100876.50;;;19.75;39.47
43621;BME280;29213;50.770;7.298;2023-07-08T07:02:25;100914.13;;;20.09;39.57
43621;BME280;29213;50.770;7.298;2023-07-08T07:04:51;100887.97;;;19.96;39.52
43621;BME280;29213;50.770;7.298;2023-07-08T07:07:16;100905.41;;;20.32;39.49
43621;BME280;29213;50.770;7.298;2023-07-08T07:09:42;100870.63;;;20.36;39.47
43621;BME280;29213;50.770;7.298;2023-07-08T07:12:07;100921.81;;;20.81;39.53
43621;BME280;29213;50.770;7.298;2023-07-08T07:14:33;100899.88;;;20.90;40.00
43621;BME280;29213;50.770;7.298;2023-07-08T07:16:59;100848.34;;;20.78;39.71
43621;BME280;29213;50.770;7.298;2023-07-08T07:19:24;100884.03;;;21.05;39.01
43621;BME280;29213;50.770;7.298;2023-07-08T07:21:50;100876.31;;;21.09;37.71
43621;BME280;29213;50.770;7.298;2023-07-08T07:24:15;100923.13;;;21.47;36.26
43621;BME280;29213;50.770;7.298;2023-07-08T07:26:41;100885.59;;;21.32;35.62
43621;BME280;29213;50.770;7.298;2023-07-08T07:29:06;100895.16;;;21.34;35.92
43621;BME280;29213;50.770;7.298;2023-07-08T07:31:31;100895.53;;;21.50;35.94
43621;BME280;29213;50.770;7.298;2023-07-08T07:33:59;100912.06;;;21.91;36.81
43621;BME280;29213;50.770;7.298;2023-07-08T07:36:24;100878.38;;;21.87;36.93
43621;BME280;29213;50.770;7.298;2023-07-08T07:38:50;100916.34;;;22.23;34.80
43621;BME280;29213;50.770;7.298;2023-07-08T07:41:16;100917.56;;;22.27;34.20
43621;BME280;29213;50.770;7.298;2023-07-08T07:43:41;100913.94;;;22.45;35.05
43621;BME280;29213;50.770;7.298;2023-07-08T07:46:07;100848.91;;;22.14;35.84
43621;BME280;29213;50.770;7.298;2023-07-08T07:48:33;100921.44;;;22.79;36.06
43621;BME280;29213;50.770;7.298;2023-07-08T07:50:58;100866.59;;;22.65;36.05
43621;BME280;29213;50.770;7.298;2023-07-08T07:53:24;100894.56;;;22.77;34.73
43621;BME280;29213;50.770;7.298;2023-07-08T07:55:56;100894.53;;;23.01;34.53
43621;BME280;29213;50.770;7.298;2023-07-08T07:58:21;100833.03;;;22.83;34.54
43621;BME280;29213;50.770;7.298;2023-07-08T08:00:47;100838.56;;;22.88;33.22
43621;BME280;29213;50.770;7.298;2023-07-08T08:03:12;100879.44;;;23.23;33.19
43621;BME280;29213;50.770;7.298;2023-07-08T08:05:37;100906.13;;;23.55;32.85
43621;BME280;29213;50.770;7.298;2023-07-08T08:08:03;100876.22;;;23.55;34.06
43621;BME280;29213;50.770;7.298;2023-07-08T08:10:29;100863.41;;;23.67;34.53
43621;BME280;29213;50.770;7.298;2023-07-08T08:12:55;100858.41;;;23.76;34.42
43621;BME280;29213;50.770;7.298;2023-07-08T08:15:22;100917.19;;;24.28;32.95
43621;BME280;29213;50.770;7.298;2023-07-08T08:17:47;100852.44;;;23.96;32.38
43621;BME280;29213;50.770;7.298;2023-07-08T08:20:14;100913.38;;;24.47;31.40
43621;BME280;29213;50.770;7.298;2023-07-08T08:22:40;100861.00;;;24.22;30.96
43621;BME280;29213;50.770;7.298;2023-07-08T08:25:05;100901.97;;;24.50;30.67
43621;BME280;29213;50.770;7.298;2023-07-08T08:27:31;100905.22;;;24.69;31.95
43621;BME280;29213;50.770;7.298;2023-07-08T08:29:57;100880.47;;;24.71;33.16
43621;BME280;29213;50.770;7.298;2023-07-08T08:32:22;100915.22;;;25.03;30.80
43621;BME280;29213;50.770;7.298;2023-07-08T08:34:47;100904.81;;;25.00;30.93
43621;BME280;29213;50.770;7.298;2023-07-08T08:37:13;100896.03;;;25.15;32.58
43621;BME280;29213;50.770;7.298;2023-07-08T08:39:39;100878.06;;;25.19;31.53
43621;BME280;29213;50.770;7.298;2023-07-08T08:42:07;100876.38;;;25.40;31.79
43621;BME280;29213;50.770;7.298;2023-07-08T08:44:36;100930.53;;;25.86;30.56
43621;BME280;29213;50.770;7.298;2023-07-08T08:47:16;100873.91;;;25.66;31.01
43621;BME280;29213;50.770;7.298;2023-07-08T08:49:56;100879.50;;;25.82;30.06
43621;BME280;29213;50.770;7.298;2023-07-08T08:52:22;100881.50;;;25.97;29.58
43621;BME280;29213;50.770;7.298;2023-07-08T08:54:47;100841.81;;;25.79;29.05
43621;BME280;29213;50.770;7.298;2023-07-08T08:57:36;100909.69;;;26.40;29.23
43621;BME280;29213;50.770;7.298;2023-07-08T09:00:04;100843.78;;;26.21;28.65
43621;BME280;29213;50.770;7.298;2023-07-08T09:02:36;100892.88;;;26.64;28.19
43621;BME280;29213;50.770;7.298;2023-07-08T09:05:05;100914.06;;;26.95;28.75
43621;BME280;29213;50.770;7.298;2023-07-08T09:07:39;100919.34;;;27.17;29.81
43621;BME280;29213;50.770;7.298;2023-07-08T09:10:21;100924.09;;;27.43;30.22
43621;BME280;29213;50.770;7.298;2023-07-08T09:12:53;100858.44;;;27.32;29.27
43621;BME280;29213;50.770;7.298;2023-07-08T09:15:21;100873.50;;;27.61;29.15
43621;BME280;29213;50.770;7.298;2023-07-08T09:17:46;100871.63;;;27.88;29.49
43621;BME280;29213;50.770;7.298;2023-07-08T09:20:26;100896.50;;;28.12;29.54
43621;BME280;29213;50.770;7.298;2023-07-08T09:22:56;100910.97;;;28.44;30.16
43621;BME280;29213;50.770;7.298;2023-07-08T09:25:35;100911.19;;;28.58;30.46
43621;BME280;29213;50.770;7.298;2023-07-08T09:28:03;100859.22;;;28.42;28.35
43621;BME280;29213;50.770;7.298;2023-07-08T09:30:28;100857.53;;;28.51;26.87
43621;BME280;29213;50.770;7.298;2023-07-08T09:32:56;100883.47;;;28.70;27.29
43621;BME280;29213;50.770;7.298;2023-07-08T09:35:27;100862.16;;;28.61;27.47
43621;BME280;29213;50.770;7.298;2023-07-08T09:37:53;100909.13;;;29.05;26.91
43621;BME280;29213;50.770;7.298;2023-07-08T09:43:41;100863.34;;;28.95;26.08
43621;BME280;29213;50.770;7.298;2023-07-08T09:45:44;100910.50;;;29.42;25.97
43621;BME280;29213;50.770;7.298;2023-07-08T09:48:19;100891.28;;;29.48;25.54
43621;BME280;29213;50.770;7.298;2023-07-08T09:50:48;100907.06;;;29.71;25.55
43621;BME280;29213;50.770;7.298;2023-07-08T09:53:14;100806.97;;;29.29;26.04
43621;BME280;29213;50.770;7.298;2023-07-08T09:55:40;100866.31;;;29.84;24.44
43621;BME280;29213;50.770;7.298;2023-07-08T09:58:11;100880.72;;;30.00;25.38
43621;BME280;29213;50.770;7.298;2023-07-08T10:00:40;100889.53;;;30.27;25.31
43621;BME280;29213;50.770;7.298;2023-07-08T10:03:19;100835.09;;;30.09;23.87
43621;BME280;29213;50.770;7.298;2023-07-08T10:05:47;100849.72;;;30.24;25.24
43621;BME280;29213;50.770;7.298;2023-07-08T10:08:19;100846.81;;;30.39;24.50
43621;BME280;29213;50.770;7.298;2023-07-08T10:10:57;100886.28;;;30.73;24.49
43621;BME280;29213;50.770;7.298;2023-07-08T10:13:43;100853.31;;;30.73;24.29
43621;BME280;29213;50.770;7.298;2023-07-08T10:16:16;100804.50;;;30.41;24.30
43621;BME280;29213;50.770;7.298;2023-07-08T10:18:45;100825.94;;;30.63;22.98
43621;BME280;29213;50.770;7.298;2023-07-08T10:27:07;100779.66;;;30.89;23.65
43621;BME280;29213;50.770;7.298;2023-07-08T10:35:12;100851.34;;;31.84;22.56
43621;BME280;29213;50.770;7.298;2023-07-08T10:38:02;100865.38;;;32.16;23.56
43621;BME280;29213;50.770;7.298;2023-07-08T10:40:48;100861.09;;;32.37;23.08
43621;BME280;29213;50.770;7.298;2023-07-08T10:46:18;100811.19;;;32.39;22.79
43621;BME280;29213;50.770;7.298;2023-07-08T10:57:16;100831.72;;;32.98;20.69
43621;BME280;29213;50.770;7.298;2023-07-08T11:00:19;100809.78;;;32.93;22.21
43621;BME280;29213;50.770;7.298;2023-07-08T11:06:02;100816.47;;;33.14;22.27
43621;BME280;29213;50.770;7.298;2023-07-08T11:08:37;100806.88;;;33.12;21.34
43621;BME280;29213;50.770;7.298;2023-07-08T11:14:03;100797.63;;;33.16;20.83
43621;BME280;29213;50.770;7.298;2023-07-08T11:16:35;100842.69;;;33.57;20.60
43621;BME280;29213;50.770;7.298;2023-07-08T11:19:10;100788.38;;;33.35;21.14
43621;BME280;29213;50.770;7.298;2023-07-08T11:21:43;100786.50;;;33.53;21.12
43621;BME280;29213;50.770;7.298;2023-07-08T11:26:49;100843.50;;;34.13;21.62
43621;BME280;29213;50.770;7.298;2023-07-08T11:29:19;100845.63;;;34.25;21.46
43621;BME280;29213;50.770;7.298;2023-07-08T11:31:46;100814.91;;;34.17;20.30
43621;BME280;29213;50.770;7.298;2023-07-08T11:34:13;100833.47;;;34.26;20.78
43621;BME280;29213;50.770;7.298;2023-07-08T11:36:40;100781.69;;;34.00;20.79
43621;BME280;29213;50.770;7.298;2023-07-08T11:39:25;100838.72;;;34.45;20.55
43621;BME280;29213;50.770;7.298;2023-07-08T11:41:52;100842.94;;;34.42;19.46
43621;BME280;29213;50.770;7.298;2023-07-08T11:44:28;100795.88;;;34.16;20.89
43621;BME280;29213;50.770;7.298;2023-07-08T11:46:55;100817.69;;;34.26;20.27
43621;BME280;29213;50.770;7.298;2023-07-08T11:49:24;100830.88;;;34.38;20.12
43621;BME280;29213;50.770;7.298;2023-07-08T11:51:52;100833.50;;;34.34;21.19
43621;BME280;29213;50.770;7.298;2023-07-08T11:54:30;100830.72;;;34.34;20.79
43621;BME280;29213;50.770;7.298;2023-07-08T11:57:04;100796.22;;;34.14;21.58
43621;BME280;29213;50.770;7.298;2023-07-08T11:59:33;100815.03;;;34.12;21.34
43621;BME280;29213;50.770;7.298;2023-07-08T12:02:19;100817.81;;;34.12;19.85
43621;BME280;29213;50.770;7.298;2023-07-08T12:05:00;100822.56;;;34.20;20.68
43621;BME280;29213;50.770;7.298;2023-07-08T12:07:40;100839.63;;;34.22;20.75
43621;BME280;29213;50.770;7.298;2023-07-08T12:12:54;100766.16;;;33.72;20.99
43621;BME280;29213;50.770;7.298;2023-07-08T12:15:25;100771.84;;;33.76;21.26
43621;BME280;29213;50.770;7.298;2023-07-08T12:17:54;100773.97;;;33.79;20.62
43621;BME280;29213;50.770;7.298;2023-07-08T12:20:23;100796.88;;;33.79;20.23
43621;BME280;29213;50.770;7.298;2023-07-08T12:22:50;100791.50;;;33.74;20.35
43621;BME280;29213;50.770;7.298;2023-07-08T12:25:22;100829.88;;;33.85;20.06
43621;BME280;29213;50.770;7.298;2023-07-08T12:27:48;100825.84;;;33.59;20.30
43621;BME280;29213;50.770;7.298;2023-07-08T12:30:15;100822.25;;;33.59;21.36
43621;BME280;29213;50.770;7.298;2023-07-08T12:32:41;100819.00;;;33.56;20.56
43621;BME280;29213;50.770;7.298;2023-07-08T12:35:17;100804.13;;;33.43;21.39
43621;BME280;29213;50.770;7.298;2023-07-08T12:37:45;100762.09;;;33.15;21.49
43621;BME280;29213;50.770;7.298;2023-07-08T12:40:11;100788.72;;;32.97;22.14
43621;BME280;29213;50.770;7.298;2023-07-08T12:42:36;100769.53;;;32.69;20.71
43621;BME280;29213;50.770;7.298;2023-07-08T12:45:02;100799.47;;;32.84;21.73
43621;BME280;29213;50.770;7.298;2023-07-08T12:47:27;100782.59;;;32.49;21.60
43621;BME280;29213;50.770;7.298;2023-07-08T12:49:53;100794.59;;;32.30;21.45
43621;BME280;29213;50.770;7.298;2023-07-08T12:52:22;100813.34;;;32.28;21.31
43621;BME280;29213;50.770;7.298;2023-07-08T12:54:48;100810.59;;;32.28;21.95
43621;BME280;29213;50.770;7.298;2023-07-08T12:57:16;100755.59;;;31.95;22.50
43621;BME280;29213;50.770;7.298;2023-07-08T12:59:43;100786.50;;;32.06;22.77
43621;BME280;29213;50.770;7.298;2023-07-08T13:02:15;100814.47;;;32.27;22.95
43621;BME280;29213;50.770;7.298;2023-07-08T13:04:44;100817.84;;;32.24;23.82
43621;BME280;29213;50.770;7.298;2023-07-08T13:09:53;100773.34;;;31.89;22.90
43621;BME280;29213;50.770;7.298;2023-07-08T13:12:20;100803.63;;;31.89;22.08
43621;BME280;29213;50.770;7.298;2023-07-08T13:14:51;100776.59;;;31.63;23.00
43621;BME280;29213;50.770;7.298;2023-07-08T13:17:18;100807.09;;;31.80;23.04
43621;BME280;29213;50.770;7.298;2023-07-08T13:19:44;100806.47;;;31.69;23.91
43621;BME280;29213;50.770;7.298;2023-07-08T13:22:19;100770.59;;;31.41;23.50
43621;BME280;29213;50.770;7.298;2023-07-08T13:24:45;100796.22;;;31.56;24.09
43621;BME280;29213;50.770;7.298;2023-07-08T13:27:23;100786.13;;;31.51;23.83
43621;BME280;29213;50.770;7.298;2023-07-08T13:29:53;100746.09;;;31.12;23.05
43621;BME280;29213;50.770;7.298;2023-07-08T13:32:19;100800.06;;;31.41;22.63
43621;BME280;29213;50.770;7.298;2023-07-08T13:34:48;100798.44;;;31.40;23.85
43621;BME280;29213;50.770;7.298;2023-07-08T13:37:15;100765.34;;;31.12;23.82
43621;BME280;29213;50.770;7.298;2023-07-08T13:39:44;100795.84;;;31.29;23.94